| time (UTC) | temp C | wind direction | speed KPH | gust KPH | rain 1hr cm | rain 24hr cm | rain mn cm | humidity % | barometer mb |
| 20260505093039 | 5 | 336 | 12.9 | 24.1 | 0.10 | 0.30 | 0.13 | 83 | 1007.1 |
| 20260505091537 | 5 | 46 | 11.3 | 20.9 | 0.08 | 0.28 | 0.10 | 83 | 1007.0 |
| 20260505090041 | 5 | 19 | 11.3 | 19.3 | 0.08 | 0.25 | 0.08 | 83 | 1007.1 |
| 20260505084541 | 5 | 15 | 11.3 | 19.3 | 0.05 | 0.23 | 0.05 | 82 | 1006.8 |
| 20260505083031 | 6 | 25 | 9.7 | 19.3 | 0.03 | 0.20 | 0.03 | 82 | 1006.8 |
| 20260505081529 | 6 | 29 | 12.9 | 27.4 | 0.03 | 0.20 | 0.03 | 82 | 1006.7 |
| 20260505080039 | 6 | 9 | 11.3 | 24.1 | 0.00 | 0.18 | 0.00 | 82 | 1006.6 |
| 20260505074527 | 6 | 318 | 9.7 | 24.1 | 0.00 | 0.18 | 0.00 | 81 | 1006.5 |
| 20260505073028 | 6 | 23 | 9.7 | 24.1 | 0.00 | 0.18 | 0.00 | 81 | 1006.5 |
| 20260505071517 | 7 | 355 | 12.9 | 24.1 | 0.00 | 0.18 | 0.00 | 80 | 1006.7 |
| 20260505070015 | 8 | 340 | 8.0 | 22.5 | 0.00 | 0.18 | 0.00 | 79 | 1006.4 |
| 20260505064509 | 8 | 360 | 6.4 | 12.9 | 0.00 | 0.18 | 0.00 | 80 | 1006.3 |
| 20260505063006 | 9 | 223 | 0.0 | 1.6 | 0.00 | 0.18 | 0.00 | 80 | 1005.7 |
| 20260505061504 | 9 | 223 | 1.6 | 6.4 | 0.00 | 0.18 | 0.00 | 80 | 1005.6 |
| 20260505060003 | 8 | 250 | 4.8 | 9.7 | 0.00 | 0.18 | 0.00 | 80 | 1005.5 |
| 20260505054600 | 8 | 237 | 3.2 | 8.0 | 0.00 | 0.18 | 0.18 | 79 | 1005.4 |
| 20260505053059 | 8 | 201 | 3.2 | 8.0 | 0.00 | 0.18 | 0.18 | 79 | 1005.1 |
| 20260505051559 | 8 | 186 | 3.2 | 6.4 | 0.00 | 0.18 | 0.18 | 79 | 1005.1 |
| 20260505041556 | 8 | 243 | 8.0 | 16.1 | 0.05 | 0.18 | 0.18 | 80 | 1005.1 |
| 20260505034554 | 9 | 234 | 11.3 | 17.7 | 0.08 | 0.18 | 0.18 | 80 | 1004.7 |
| 20260505033056 | 10 | 211 | 11.3 | 22.5 | 0.08 | 0.15 | 0.15 | 79 | 1004.7 |
| 20260505031558 | 10 | 244 | 9.7 | 17.7 | 0.05 | 0.13 | 0.13 | 78 | 1004.5 |
| 20260505030057 | 10 | 238 | 6.4 | 16.1 | 0.05 | 0.13 | 0.13 | 75 | 1004.3 |
| 20260505024551 | 10 | 253 | 8.0 | 12.9 | 0.03 | 0.10 | 0.10 | 71 | 1003.9 |
| 20260505023047 | 11 | 252 | 6.4 | 11.3 | 0.00 | 0.08 | 0.08 | 68 | 1003.8 |
| 20260505021543 | 11 | 264 | 1.6 | 6.4 | 0.00 | 0.08 | 0.08 | 66 | 1003.6 |
| 20260505020042 | 11 | 335 | 1.6 | 6.4 | 0.00 | 0.08 | 0.08 | 65 | 1003.5 |
| 20260505014559 | 11 | 284 | 3.2 | 14.5 | 0.00 | 0.08 | 0.08 | 64 | 1003.2 |
| 20260505013041 | 11 | 338 | 6.4 | 16.1 | 0.00 | 0.08 | 0.08 | 65 | 1002.9 |
| 20260505011547 | 12 | 313 | 8.0 | 24.1 | 0.00 | 0.08 | 0.08 | 63 | 1003.0 |
| 20260505010037 | 12 | 333 | 8.0 | 20.9 | 0.00 | 0.08 | 0.08 | 62 | 1003.0 |
| 20260505004537 | 13 | 315 | 9.7 | 20.9 | 0.00 | 0.08 | 0.08 | 57 | 1002.9 |
| 20260505003036 | 14 | 9 | 4.8 | 9.7 | 0.00 | 0.08 | 0.08 | 60 | 1002.5 |
| 20260505001542 | 14 | 40 | 1.6 | 8.0 | 0.00 | 0.08 | 0.08 | 62 | 1002.3 |
| 20260505000036 | 14 | 355 | 1.6 | 3.2 | 0.00 | 0.08 | 0.08 | 61 | 1002.2 |
| 20260504234535 | 13 | 336 | 3.2 | 9.7 | 0.00 | 0.08 | 0.08 | 61 | 1002.0 |
| 20260504233035 | 13 | 360 | 4.8 | 16.1 | 0.00 | 0.08 | 0.08 | 61 | 1002.1 |
| 20260504231534 | 13 | 33 | 9.7 | 17.7 | 0.00 | 0.08 | 0.08 | 58 | 1002.2 |
| 20260504230033 | 15 | 271 | 4.8 | 19.3 | 0.00 | 0.08 | 0.08 | 50 | 1002.0 |
| 20260504224537 | 16 | 250 | 4.8 | 9.7 | 0.00 | 0.08 | 0.08 | 49 | 1001.6 |
| 20260504223032 | 16 | 15 | 3.2 | 9.7 | 0.00 | 0.08 | 0.08 | 47 | 1001.1 |
| 20260504221531 | 15 | 331 | 4.8 | 12.9 | 0.03 | 0.08 | 0.08 | 51 | 1000.7 |
| 20260504220031 | 15 | 59 | 8.0 | 16.1 | 0.03 | 0.08 | 0.08 | 53 | 1000.1 |
| 20260504214530 | 15 | 34 | 9.7 | 17.7 | 0.05 | 0.08 | 0.08 | 55 | 1000.4 |
| 20260504213029 | 13 | 46 | 14.5 | 24.1 | 0.08 | 0.08 | 0.08 | 55 | 1001.1 |
| 20260504211528 | 14 | 291 | 12.9 | 32.2 | 0.05 | 0.05 | 0.05 | 50 | 1001.9 |
| 20260504210036 | 14 | 27 | 8.0 | 24.1 | 0.05 | 0.05 | 0.05 | 50 | 1001.8 |
| 20260504204537 | 16 | 298 | 9.7 | 45.1 | 0.00 | 0.00 | 0.00 | 46 | 1001.3 |
| 20260504203030 | 18 | 360 | 22.5 | 49.9 | 0.00 | 0.00 | 0.00 | 32 | 1000.1 |
| 20260504201525 | 20 | 355 | 24.1 | 38.6 | 0.00 | 0.00 | 0.00 | 28 | 999.6 |
| 20260504200025 | 21 | 337 | 14.5 | 27.4 | 0.00 | 0.00 | 0.00 | 24 | 999.8 |
| 20260504194524 | 22 | 343 | 11.3 | 24.1 | 0.00 | 0.00 | 0.00 | 27 | 999.6 |
| 20260504193024 | 23 | 319 | 12.9 | 29.0 | 0.00 | 0.00 | 0.00 | 25 | 999.5 |
| 20260504191519 | 22 | 280 | 6.4 | 14.5 | 0.00 | 0.00 | 0.00 | 25 | 999.5 |
| 20260504190017 | 22 | 260 | 4.8 | 20.9 | 0.00 | 0.00 | 0.00 | 25 | 999.6 |
| 20260504184515 | 22 | 282 | 8.0 | 19.3 | 0.00 | 0.00 | 0.00 | 26 | 999.7 |
| 20260504183011 | 21 | 294 | 4.8 | 22.5 | 0.00 | 0.00 | 0.00 | 28 | 1000.1 |
| 20260504181509 | 21 | 283 | 8.0 | 19.3 | 0.00 | 0.00 | 0.00 | 28 | 1000.2 |
| 20260504180007 | 21 | 272 | 6.4 | 16.1 | 0.00 | 0.00 | 0.00 | 29 | 1000.5 |
| 20260504174502 | 20 | 281 | 6.4 | 17.7 | 0.00 | 0.00 | 0.00 | 30 | 1000.8 |
| 20260504173109 | 19 | 234 | 3.2 | 20.9 | 0.00 | 0.00 | 0.00 | 31 | 1001.1 |
| 20260504171602 | 18 | 240 | 11.3 | 20.9 | 0.00 | 0.00 | 0.00 | 31 | 1001.2 |